createdAt,value
2022-12-11T00:01:59.882Z,78.68
2022-12-11T00:04:30.846Z,79.11
2022-12-11T00:07:01.107Z,78.48
2022-12-11T00:09:31.907Z,78.61
2022-12-11T00:12:03.431Z,78.47
2022-12-11T00:14:34.027Z,78.64
2022-12-11T00:17:05.545Z,78.67
2022-12-11T00:19:36.139Z,78.46
2022-12-11T00:22:09.547Z,78.35
2022-12-11T00:24:40.052Z,78.36
2022-12-11T00:27:10.586Z,79.03
2022-12-11T00:29:41.219Z,78.96
2022-12-11T00:32:11.546Z,78.70
2022-12-11T00:34:42.277Z,78.59
2022-12-11T00:37:12.826Z,78.58
2022-12-11T00:39:43.611Z,78.18
2022-12-11T00:42:14.713Z,77.32
2022-12-11T00:44:45.050Z,77.71
2022-12-11T00:47:16.404Z,77.26
2022-12-11T00:49:49.999Z,76.64
2022-12-11T00:52:20.770Z,76.40
2022-12-11T00:54:52.160Z,76.49
2022-12-11T00:57:22.768Z,76.29
2022-12-11T00:59:52.952Z,75.81
2022-12-11T01:02:24.085Z,75.82
2022-12-11T01:04:54.847Z,75.77
2022-12-11T01:07:26.265Z,75.54
2022-12-11T01:10:14.953Z,75.13
2022-12-11T01:12:45.212Z,75.04
2022-12-11T01:15:15.843Z,75.02
2022-12-11T01:17:46.339Z,75.42
2022-12-11T01:20:18.249Z,75.45
2022-12-11T01:22:48.744Z,75.30
2022-12-11T01:25:19.677Z,74.78
2022-12-11T01:27:52.838Z,74.63
2022-12-11T01:30:26.018Z,75.30
2022-12-11T01:32:57.802Z,74.68
2022-12-11T01:35:29.085Z,74.71
2022-12-11T01:38:00.267Z,74.55
2022-12-11T01:40:30.779Z,74.45
2022-12-11T01:43:01.776Z,74.39
2022-12-11T01:45:33.753Z,74.45
2022-12-11T01:48:11.853Z,74.18
2022-12-11T01:50:58.361Z,74.40
2022-12-11T01:53:38.727Z,73.78
2022-12-11T01:56:10.319Z,73.86
2022-12-11T01:58:49.108Z,73.34
2022-12-11T02:01:48.050Z,73.65
2022-12-11T02:04:20.969Z,73.13
2022-12-11T02:06:53.579Z,73.09
2022-12-11T02:09:28.960Z,73.15
2022-12-11T02:12:25.441Z,73.13
2022-12-11T02:14:58.454Z,72.85
2022-12-11T02:18:06.274Z,72.84
2022-12-11T02:20:39.854Z,72.58
2022-12-11T02:23:54.330Z,72.24
2022-12-11T02:26:48.738Z,71.88
2022-12-11T02:29:24.748Z,71.99
2022-12-11T02:32:04.845Z,71.88
2022-12-11T02:35:04.451Z,71.59
2022-12-11T02:37:38.447Z,71.31
2022-12-11T02:40:11.912Z,71.33
2022-12-11T02:42:44.484Z,71.07
2022-12-11T02:45:16.432Z,70.92
2022-12-11T02:47:49.419Z,71.02
2022-12-11T02:50:21.853Z,70.93
2022-12-11T02:52:56.708Z,70.80
2022-12-11T02:55:28.739Z,70.20
2022-12-11T02:58:17.925Z,70.34
2022-12-11T03:00:48.829Z,70.08
2022-12-11T03:03:19.264Z,69.62
2022-12-11T03:05:49.836Z,69.68
2022-12-11T03:08:21.069Z,69.68
2022-12-11T03:10:53.103Z,69.64
2022-12-11T03:13:24.468Z,69.58
2022-12-11T03:16:24.198Z,70.01
2022-12-11T03:19:49.977Z,70.12
2022-12-11T03:22:40.949Z,69.60
2022-12-11T03:25:25.140Z,70.21
2022-12-11T03:28:11.858Z,69.75
2022-12-11T03:30:43.201Z,69.50
2022-12-11T03:33:20.004Z,69.79
2022-12-11T03:35:55.701Z,69.95
2022-12-11T03:38:33.075Z,69.38
2022-12-11T03:41:05.324Z,69.15
2022-12-11T03:43:36.474Z,68.90
2022-12-11T03:46:07.927Z,68.94
2022-12-11T03:48:42.683Z,68.63
2022-12-11T03:51:13.015Z,68.41
2022-12-11T03:53:43.226Z,68.39
2022-12-11T03:56:15.045Z,68.96
2022-12-11T03:58:45.563Z,68.75
2022-12-11T04:01:16.446Z,68.27
2022-12-11T04:03:47.006Z,69.00
2022-12-11T04:06:17.742Z,68.16
2022-12-11T04:08:49.265Z,68.33
2022-12-11T04:11:35.576Z,67.63
2022-12-11T04:14:27.088Z,67.60
2022-12-11T04:16:58.341Z,67.36
2022-12-11T04:19:47.569Z,67.55
2022-12-11T04:22:38.322Z,67.70
2022-12-11T04:25:10.312Z,67.79
2022-12-11T04:27:50.217Z,67.56
2022-12-11T04:30:26.071Z,67.59
2022-12-11T04:33:00.330Z,67.28
2022-12-11T04:35:33.497Z,67.40
2022-12-11T04:38:04.411Z,67.08
2022-12-11T04:40:34.807Z,66.99
2022-12-11T04:43:05.908Z,66.29
2022-12-11T04:45:36.263Z,66.72
2022-12-11T04:48:06.994Z,66.27
2022-12-11T04:50:37.921Z,66.21
2022-12-11T04:53:08.497Z,65.77
2022-12-11T04:55:40.888Z,65.40
2022-12-11T04:58:11.110Z,65.91
2022-12-11T05:00:43.137Z,65.46
2022-12-11T05:03:14.118Z,65.03
2022-12-11T05:05:53.048Z,65.02
2022-12-11T05:08:23.983Z,64.87
2022-12-11T05:11:00.944Z,64.71
2022-12-11T05:13:32.852Z,64.51
2022-12-11T05:16:06.735Z,64.00
2022-12-11T05:18:37.361Z,63.49
2022-12-11T05:21:12.808Z,63.82
2022-12-11T05:23:43.977Z,63.52
2022-12-11T05:26:19.559Z,62.95
2022-12-11T05:28:55.127Z,63.22
2022-12-11T05:31:28.032Z,63.24
2022-12-11T05:33:58.661Z,63.97
2022-12-11T05:36:31.440Z,63.77
2022-12-11T05:39:02.611Z,64.14
2022-12-11T05:41:35.430Z,64.83
2022-12-11T05:44:05.741Z,65.69
2022-12-11T05:46:36.715Z,65.86
2022-12-11T05:49:07.315Z,65.69
2022-12-11T05:51:37.680Z,65.94
2022-12-11T05:54:08.598Z,65.99
2022-12-11T05:56:39.362Z,65.67
2022-12-11T05:59:10.809Z,64.68
2022-12-11T06:01:43.789Z,64.36
2022-12-11T06:04:14.924Z,64.05
2022-12-11T06:06:45.868Z,64.30
2022-12-11T06:09:17.478Z,63.98
2022-12-11T06:11:48.069Z,63.20
2022-12-11T06:14:18.307Z,62.45
2022-12-11T06:16:49.151Z,62.62
2022-12-11T06:19:19.842Z,62.75
2022-12-11T06:21:51.611Z,62.52
2022-12-11T06:24:22.038Z,62.46
2022-12-11T06:26:52.563Z,62.26
2022-12-11T06:29:23.416Z,61.61
2022-12-11T06:31:53.804Z,61.22
2022-12-11T06:34:24.418Z,60.83
2022-12-11T06:36:55.229Z,60.79
2022-12-11T06:39:25.743Z,61.03
2022-12-11T06:41:56.758Z,61.34
2022-12-11T06:44:27.347Z,61.13
2022-12-11T06:46:57.702Z,61.35
2022-12-11T06:49:28.506Z,60.83
2022-12-11T06:51:59.596Z,60.98
2022-12-11T06:54:29.975Z,60.26
2022-12-11T06:57:00.613Z,60.05
2022-12-11T06:59:31.241Z,60.32
2022-12-11T07:02:01.618Z,59.87
2022-12-11T07:04:32.370Z,60.20
2022-12-11T07:07:02.701Z,59.84
2022-12-11T07:09:33.024Z,59.71
2022-12-11T07:12:05.078Z,60.60
2022-12-11T07:14:35.946Z,60.59
2022-12-11T07:17:07.131Z,60.93
2022-12-11T07:19:39.195Z,61.00
2022-12-11T07:22:09.780Z,60.89
2022-12-11T07:24:41.126Z,60.73
2022-12-11T07:27:13.799Z,60.88
2022-12-11T07:29:44.153Z,61.06
2022-12-11T07:32:15.555Z,61.42
2022-12-11T07:34:51.560Z,61.38
2022-12-11T07:37:22.961Z,61.21
2022-12-11T07:39:54.290Z,60.89
2022-12-11T07:42:25.409Z,60.47
2022-12-11T07:44:55.844Z,60.62
2022-12-11T07:47:26.363Z,60.97
2022-12-11T07:49:57.432Z,61.63
2022-12-11T07:52:28.285Z,62.13
2022-12-11T07:54:58.574Z,62.14
2022-12-11T07:57:40.023Z,62.20
2022-12-11T08:00:12.672Z,62.04
2022-12-11T08:02:45.421Z,62.16
2022-12-11T08:05:16.720Z,62.32
2022-12-11T08:07:47.968Z,62.42
2022-12-11T08:10:19.208Z,62.40
2022-12-11T08:12:49.736Z,62.46
2022-12-11T08:15:20.284Z,62.62
2022-12-11T08:17:50.832Z,62.96
2022-12-11T08:20:21.409Z,62.53
2022-12-11T08:22:56.031Z,63.24
2022-12-11T08:25:30.245Z,63.36
2022-12-11T08:28:00.364Z,64.14
2022-12-11T08:30:31.336Z,63.77
2022-12-11T08:33:01.689Z,63.71
2022-12-11T08:35:32.304Z,63.52
2022-12-11T08:38:03.719Z,63.84
2022-12-11T08:40:34.696Z,64.30
2022-12-11T08:43:05.249Z,64.08
2022-12-11T08:45:37.191Z,64.21
2022-12-11T08:48:09.024Z,63.96
2022-12-11T08:50:40.476Z,64.17
2022-12-11T08:53:11.044Z,64.63
2022-12-11T08:55:41.825Z,64.56
2022-12-11T08:58:12.519Z,64.44
2022-12-11T09:00:43.703Z,64.18
2022-12-11T09:03:14.411Z,64.27
2022-12-11T09:05:45.168Z,63.87
2022-12-11T09:08:15.783Z,63.82
2022-12-11T09:10:48.936Z,64.87
2022-12-11T09:13:19.321Z,64.77
2022-12-11T09:15:49.829Z,65.03
2022-12-11T09:18:22.483Z,65.00
2022-12-11T09:21:07.872Z,65.34
2022-12-11T09:23:39.530Z,64.50
2022-12-11T09:26:13.062Z,64.60
2022-12-11T09:28:47.043Z,63.85
2022-12-11T09:31:20.468Z,63.95
2022-12-11T09:33:51.665Z,63.46
2022-12-11T09:36:25.116Z,63.20
2022-12-11T09:38:55.662Z,63.19
2022-12-11T09:42:07.755Z,63.49
2022-12-11T09:44:48.993Z,63.41
2022-12-11T09:47:51.180Z,64.00
2022-12-11T09:50:27.215Z,64.01
2022-12-11T09:53:34.081Z,64.24
2022-12-11T09:56:11.574Z,64.43
2022-12-11T09:58:54.025Z,64.57
2022-12-11T10:01:41.690Z,64.88
2022-12-11T10:04:12.357Z,64.35
2022-12-11T10:07:21.131Z,64.59
2022-12-11T10:09:57.312Z,64.42
2022-12-11T10:12:51.085Z,64.26
2022-12-11T10:15:31.777Z,64.69
2022-12-11T10:18:05.117Z,64.55
2022-12-11T10:20:40.154Z,64.62
2022-12-11T10:23:20.047Z,65.22
2022-12-11T10:25:58.624Z,65.46
2022-12-11T10:28:30.036Z,65.47
2022-12-11T10:31:07.599Z,65.30
2022-12-11T10:33:57.746Z,65.44
2022-12-11T10:36:37.221Z,65.90
2022-12-11T10:39:20.324Z,65.69
2022-12-11T10:41:55.459Z,66.02
2022-12-11T10:44:29.231Z,65.56
2022-12-11T10:47:13.853Z,66.06
2022-12-11T10:49:56.984Z,66.33
2022-12-11T10:52:30.602Z,65.89
2022-12-11T10:55:19.431Z,66.12
2022-12-11T10:58:00.475Z,66.53
2022-12-11T11:00:38.060Z,66.89
2022-12-11T11:03:27.570Z,67.12
2022-12-11T11:06:28.089Z,66.66
2022-12-11T11:08:59.957Z,66.93
2022-12-11T11:11:39.350Z,67.21
2022-12-11T11:14:21.517Z,67.48
2022-12-11T11:16:57.214Z,67.57
2022-12-11T11:19:38.262Z,67.97
2022-12-11T11:22:14.352Z,67.97
2022-12-11T11:24:55.986Z,68.17
2022-12-11T11:27:37.377Z,68.04
2022-12-11T11:30:20.065Z,67.77
2022-12-11T11:32:56.307Z,68.04
2022-12-11T11:35:28.985Z,67.93
2022-12-11T11:38:33.195Z,67.80
2022-12-11T11:41:13.169Z,67.36
2022-12-11T11:43:54.892Z,66.83
2022-12-11T11:46:44.149Z,66.88
2022-12-11T11:50:04.318Z,67.53
2022-12-11T11:52:52.441Z,67.13
2022-12-11T11:55:54.450Z,67.73
2022-12-11T11:58:29.539Z,67.78
2022-12-11T12:01:00.207Z,67.74
2022-12-11T12:03:31.309Z,67.98
2022-12-11T12:06:26.331Z,67.94
2022-12-11T12:09:29.445Z,68.46
2022-12-11T12:12:19.392Z,68.52
2022-12-11T12:14:59.334Z,68.26
2022-12-11T12:17:37.124Z,68.39
2022-12-11T12:20:15.830Z,69.51
2022-12-11T12:23:04.346Z,68.62
2022-12-11T12:25:45.773Z,68.28
2022-12-11T12:28:24.144Z,68.19
2022-12-11T12:31:03.225Z,68.19
2022-12-11T12:33:39.755Z,68.31
2022-12-11T12:36:18.466Z,68.38
2022-12-11T12:38:51.819Z,67.94
2022-12-11T12:41:37.418Z,68.58
2022-12-11T12:44:20.668Z,68.44
2022-12-11T12:46:57.956Z,69.12
2022-12-11T12:49:46.710Z,68.55
2022-12-11T12:52:34.016Z,68.91
2022-12-11T12:55:30.426Z,69.01
2022-12-11T12:58:06.702Z,68.94
2022-12-11T13:00:44.458Z,69.15
2022-12-11T13:03:31.350Z,68.88
2022-12-11T13:06:06.855Z,69.21
2022-12-11T13:08:55.735Z,69.68
2022-12-11T13:11:36.250Z,69.41
2022-12-11T13:14:07.231Z,68.61
2022-12-11T13:16:42.579Z,69.63
2022-12-11T13:19:42.549Z,69.69
2022-12-11T13:22:16.318Z,68.94
2022-12-11T13:25:03.265Z,69.00
2022-12-11T13:27:39.109Z,68.89
2022-12-11T13:30:27.916Z,68.98
2022-12-11T13:33:19.783Z,69.08
2022-12-11T13:36:16.692Z,68.75
2022-12-11T13:38:57.312Z,69.48
2022-12-11T13:41:28.964Z,69.07
2022-12-11T13:43:59.846Z,68.92
2022-12-11T13:46:33.526Z,68.73
2022-12-11T13:49:07.831Z,68.57
2022-12-11T13:51:55.135Z,69.09
2022-12-11T13:54:26.177Z,68.80
2022-12-11T13:57:04.459Z,69.07
2022-12-11T13:59:40.017Z,69.75
2022-12-11T14:02:28.270Z,69.26
2022-12-11T14:05:02.559Z,69.26
2022-12-11T14:07:35.114Z,68.79
2022-12-11T14:10:10.682Z,68.61
2022-12-11T14:12:49.042Z,68.54
2022-12-11T14:15:20.060Z,68.65
2022-12-11T14:17:52.119Z,68.45
2022-12-11T14:20:25.736Z,68.70
2022-12-11T14:23:28.933Z,68.82
2022-12-11T14:26:14.754Z,68.79
2022-12-11T14:28:45.745Z,68.35
2022-12-11T14:31:20.118Z,68.62
2022-12-11T14:34:03.106Z,68.46
2022-12-11T14:36:34.732Z,68.71
2022-12-11T14:39:28.663Z,68.89
2022-12-11T14:42:16.735Z,69.01
2022-12-11T14:44:56.574Z,68.87
2022-12-11T14:47:32.411Z,68.79
2022-12-11T14:50:36.888Z,68.82
2022-12-11T14:53:15.489Z,68.90
2022-12-11T14:55:47.007Z,68.46
2022-12-11T14:58:23.164Z,68.49
2022-12-11T15:01:06.135Z,68.91
2022-12-11T15:03:39.029Z,68.75
2022-12-11T15:06:45.706Z,68.67
2022-12-11T15:09:30.438Z,68.83
2022-12-11T15:12:11.705Z,69.11
2022-12-11T15:14:52.538Z,69.26
2022-12-11T15:17:24.924Z,69.04
2022-12-11T15:19:59.063Z,68.80
2022-12-11T15:22:34.256Z,68.72
2022-12-11T15:25:04.781Z,69.04
2022-12-11T15:27:37.779Z,68.66
2022-12-11T15:30:29.412Z,69.11
2022-12-11T15:33:12.226Z,69.28
2022-12-11T15:36:02.432Z,69.42
2022-12-11T15:38:38.627Z,68.78
2022-12-11T15:41:15.148Z,69.33
2022-12-11T15:43:46.307Z,69.13
2022-12-11T15:46:17.119Z,68.90
2022-12-11T15:48:48.764Z,69.02
2022-12-11T15:51:19.651Z,69.31
2022-12-11T15:53:50.093Z,69.39
2022-12-11T15:56:20.705Z,69.24
2022-12-11T15:58:51.238Z,69.31
2022-12-11T16:01:22.149Z,69.69
2022-12-11T16:03:52.443Z,69.58
2022-12-11T16:06:22.842Z,70.24
2022-12-11T16:08:53.066Z,70.37
2022-12-11T16:11:23.390Z,69.99
2022-12-11T16:13:54.189Z,70.44
2022-12-11T16:16:24.670Z,70.17
2022-12-11T16:18:55.787Z,69.80
2022-12-11T16:21:26.268Z,69.52
2022-12-11T16:23:57.120Z,69.89
2022-12-11T16:26:28.104Z,69.72
2022-12-11T16:28:58.596Z,69.83
2022-12-11T16:31:29.825Z,70.06
2022-12-11T16:34:00.648Z,70.12
2022-12-11T16:36:30.916Z,69.97
2022-12-11T16:39:01.712Z,70.21
2022-12-11T16:41:32.230Z,69.97
2022-12-11T16:44:04.517Z,70.28
2022-12-11T16:46:35.755Z,70.39
2022-12-11T16:49:06.668Z,69.96
2022-12-11T16:51:37.318Z,70.30
2022-12-11T16:54:07.925Z,70.07
2022-12-11T16:56:39.462Z,70.50
2022-12-11T16:59:13.829Z,70.55
2022-12-11T17:01:45.904Z,70.68
2022-12-11T17:04:19.035Z,70.36
2022-12-11T17:06:58.513Z,70.03
2022-12-11T17:09:31.750Z,70.31
2022-12-11T17:12:02.015Z,70.24
2022-12-11T17:14:32.615Z,70.14
2022-12-11T17:17:04.671Z,70.07
2022-12-11T17:19:37.454Z,70.42
2022-12-11T17:22:08.689Z,70.28
2022-12-11T17:24:39.327Z,70.18
2022-12-11T17:27:09.905Z,70.23
2022-12-11T17:29:40.502Z,69.86
2022-12-11T17:32:11.473Z,69.49
2022-12-11T17:34:42.283Z,69.97
2022-12-11T17:37:13.254Z,70.41
2022-12-11T17:39:43.778Z,70.49
2022-12-11T17:42:15.359Z,70.25
2022-12-11T17:44:46.510Z,70.53
2022-12-11T17:47:17.052Z,70.81
2022-12-11T17:49:47.301Z,70.58
2022-12-11T17:52:17.836Z,70.45
2022-12-11T17:54:48.472Z,70.62
2022-12-11T17:57:19.261Z,70.45
2022-12-11T17:59:59.172Z,71.00
2022-12-11T18:02:29.997Z,70.49
2022-12-11T18:05:00.576Z,70.62
2022-12-11T18:07:30.821Z,70.57
2022-12-11T18:10:01.398Z,70.79
2022-12-11T18:12:32.011Z,70.71
2022-12-11T18:15:03.549Z,70.53
2022-12-11T18:17:34.584Z,70.54
2022-12-11T18:20:09.475Z,70.51
2022-12-11T18:22:40.086Z,70.79
2022-12-11T18:25:13.476Z,70.64
2022-12-11T18:27:44.418Z,71.04
2022-12-11T18:30:15.487Z,70.70
2022-12-11T18:32:46.513Z,70.87
2022-12-11T18:35:17.204Z,71.10
2022-12-11T18:37:48.189Z,71.00
2022-12-11T18:40:18.967Z,71.18
2022-12-11T18:42:50.520Z,71.39
2022-12-11T18:45:20.995Z,71.45
2022-12-11T18:47:56.580Z,71.36
2022-12-11T18:50:28.915Z,71.35
2022-12-11T18:53:01.279Z,71.24
2022-12-11T18:55:31.833Z,71.60
2022-12-11T18:58:03.035Z,71.94
2022-12-11T19:00:33.508Z,71.77
2022-12-11T19:03:04.066Z,71.93
2022-12-11T19:05:34.885Z,71.77
2022-12-11T19:08:05.638Z,71.97
2022-12-11T19:10:43.762Z,72.16
2022-12-11T19:13:15.631Z,71.52
2022-12-11T19:15:48.233Z,71.98
2022-12-11T19:18:19.180Z,72.07
2022-12-11T19:20:52.376Z,71.79
2022-12-11T19:23:32.691Z,71.69
2022-12-11T19:26:03.425Z,71.67
2022-12-11T19:28:35.386Z,71.75
2022-12-11T19:31:05.812Z,72.14
2022-12-11T19:33:45.604Z,72.58
2022-12-11T19:36:22.421Z,72.75
2022-12-11T19:38:57.894Z,72.76
2022-12-11T19:41:32.621Z,72.82
2022-12-11T19:44:03.304Z,72.65
2022-12-11T19:46:34.176Z,72.78
2022-12-11T19:49:05.367Z,72.95
2022-12-11T19:51:39.443Z,72.57
2022-12-11T19:54:13.195Z,72.46
2022-12-11T19:56:43.796Z,72.87
2022-12-11T19:59:17.675Z,73.37
2022-12-11T20:01:49.213Z,73.45
2022-12-11T20:04:20.921Z,73.59
2022-12-11T20:06:51.684Z,73.88
2022-12-11T20:09:23.136Z,74.16
2022-12-11T20:11:53.593Z,74.33
2022-12-11T20:14:26.349Z,74.55
2022-12-11T20:17:14.357Z,75.33
2022-12-11T20:19:45.397Z,76.03
2022-12-11T20:22:18.848Z,76.76
2022-12-11T20:24:50.065Z,77.37
2022-12-11T20:27:20.575Z,77.35
2022-12-11T20:29:50.854Z,77.68
2022-12-11T20:32:21.547Z,78.03
2022-12-11T20:34:51.891Z,78.14
2022-12-11T20:37:22.702Z,77.94
2022-12-11T20:39:53.458Z,78.02
2022-12-11T20:42:24.688Z,78.70
2022-12-11T20:44:56.497Z,78.77
2022-12-11T20:47:27.256Z,78.32
2022-12-11T20:49:57.567Z,78.66
2022-12-11T20:52:29.040Z,78.27
2022-12-11T20:55:01.589Z,77.92
2022-12-11T20:57:32.027Z,78.47
2022-12-11T21:00:03.679Z,78.08
2022-12-11T21:02:35.003Z,77.48
2022-12-11T21:05:05.709Z,77.82
2022-12-11T21:07:36.205Z,77.53
2022-12-11T21:10:07.807Z,77.45
2022-12-11T21:12:39.166Z,77.45
2022-12-11T21:15:12.725Z,77.24
2022-12-11T21:17:43.372Z,77.79
2022-12-11T21:20:14.041Z,77.66
2022-12-11T21:22:44.800Z,77.14
2022-12-11T21:25:15.184Z,76.92
2022-12-11T21:27:47.861Z,77.04
2022-12-11T21:30:18.264Z,77.50
2022-12-11T21:32:48.920Z,77.33
2022-12-11T21:35:22.703Z,77.25
2022-12-11T21:37:53.651Z,77.14
2022-12-11T21:40:24.412Z,77.80
2022-12-11T21:42:55.169Z,78.00
2022-12-11T21:45:59.306Z,77.70
2022-12-11T21:48:17.069Z,77.60
2022-12-11T21:50:47.616Z,77.68
2022-12-11T21:53:19.089Z,77.54
2022-12-11T21:55:49.926Z,77.68
2022-12-11T21:58:22.340Z,77.87
2022-12-11T22:00:53.263Z,77.72
2022-12-11T22:03:23.638Z,77.98
2022-12-11T22:05:54.200Z,78.02
2022-12-11T22:08:25.179Z,77.85
2022-12-11T22:10:56.607Z,77.60
2022-12-11T22:13:26.907Z,77.86
2022-12-11T22:15:58.576Z,78.17
2022-12-11T22:18:29.557Z,77.84
2022-12-11T22:21:03.201Z,78.04
2022-12-11T22:23:33.477Z,78.45
2022-12-11T22:26:03.882Z,78.23
2022-12-11T22:28:37.037Z,78.07
2022-12-11T22:31:12.523Z,78.49
2022-12-11T22:33:43.080Z,78.44
2022-12-11T22:36:13.400Z,78.40
2022-12-11T22:38:44.402Z,77.67
2022-12-11T22:41:22.201Z,77.90
2022-12-11T22:43:53.186Z,77.83
2022-12-11T22:46:25.763Z,77.96
2022-12-11T22:48:56.869Z,78.29
2022-12-11T22:51:27.232Z,78.51
2022-12-11T22:53:57.771Z,78.30
2022-12-11T22:56:28.758Z,78.64
2022-12-11T22:59:00.195Z,78.52
2022-12-11T23:01:30.947Z,78.48
2022-12-11T23:04:01.281Z,78.53
2022-12-11T23:06:32.190Z,78.70
2022-12-11T23:09:05.949Z,78.57
2022-12-11T23:11:38.747Z,78.67
2022-12-11T23:14:12.544Z,79.09
2022-12-11T23:16:43.612Z,78.80
2022-12-11T23:19:14.934Z,79.15
2022-12-11T23:21:45.592Z,79.18
2022-12-11T23:24:16.308Z,79.33
2022-12-11T23:26:46.934Z,79.34
2022-12-11T23:29:17.247Z,79.12
2022-12-11T23:31:47.756Z,79.21
2022-12-11T23:34:18.417Z,79.14
2022-12-11T23:36:49.070Z,79.09
2022-12-11T23:39:19.627Z,79.36
2022-12-11T23:41:50.791Z,78.97
2022-12-11T23:44:21.563Z,79.34
2022-12-11T23:46:52.469Z,78.63
2022-12-11T23:49:32.945Z,78.58
2022-12-11T23:52:05.181Z,78.42
2022-12-11T23:54:35.799Z,78.36
2022-12-11T23:57:06.227Z,78.44
2022-12-11T23:59:37.976Z,78.27
